sensor_id;sensor_type;location;lat;lon;timestamp;P1;durP1;ratioP1;P2;durP2;ratioP2
51288;SDS011;37372;52.294;5.152;2023-09-08T00:01:19;11.13;;;7.20;;
51288;SDS011;37372;52.294;5.152;2023-09-08T00:03:44;10.77;;;7.72;;
51288;SDS011;37372;52.294;5.152;2023-09-08T00:06:10;11.45;;;7.13;;
51288;SDS011;37372;52.294;5.152;2023-09-08T00:08:35;10.02;;;7.22;;
51288;SDS011;37372;52.294;5.152;2023-09-08T00:11:01;12.05;;;7.57;;
51288;SDS011;37372;52.294;5.152;2023-09-08T00:13:26;11.68;;;8.10;;
51288;SDS011;37372;52.294;5.152;2023-09-08T00:15:52;9.93;;;6.97;;
51288;SDS011;37372;52.294;5.152;2023-09-08T00:18:17;12.15;;;7.85;;
51288;SDS011;37372;52.294;5.152;2023-09-08T00:20:42;11.20;;;7.65;;
51288;SDS011;37372;52.294;5.152;2023-09-08T00:23:08;12.80;;;8.82;;
51288;SDS011;37372;52.294;5.152;2023-09-08T00:25:33;9.02;;;7.47;;
51288;SDS011;37372;52.294;5.152;2023-09-08T00:27:59;11.40;;;8.25;;
51288;SDS011;37372;52.294;5.152;2023-09-08T00:30:25;10.40;;;7.60;;
51288;SDS011;37372;52.294;5.152;2023-09-08T00:32:50;18.27;;;8.45;;
51288;SDS011;37372;52.294;5.152;2023-09-08T00:35:16;15.68;;;8.73;;
51288;SDS011;37372;52.294;5.152;2023-09-08T00:37:41;12.88;;;7.30;;
51288;SDS011;37372;52.294;5.152;2023-09-08T00:40:07;10.63;;;7.57;;
51288;SDS011;37372;52.294;5.152;2023-09-08T00:42:35;9.75;;;8.07;;
51288;SDS011;37372;52.294;5.152;2023-09-08T00:45:01;13.15;;;7.55;;
51288;SDS011;37372;52.294;5.152;2023-09-08T00:47:27;14.63;;;7.78;;
51288;SDS011;37372;52.294;5.152;2023-09-08T00:49:53;14.65;;;8.90;;
51288;SDS011;37372;52.294;5.152;2023-09-08T00:52:18;10.35;;;8.52;;
51288;SDS011;37372;52.294;5.152;2023-09-08T00:54:44;10.70;;;8.68;;
51288;SDS011;37372;52.294;5.152;2023-09-08T00:57:09;11.98;;;8.38;;
51288;SDS011;37372;52.294;5.152;2023-09-08T00:59:35;12.85;;;8.82;;
51288;SDS011;37372;52.294;5.152;2023-09-08T01:02:04;11.52;;;9.25;;
51288;SDS011;37372;52.294;5.152;2023-09-08T01:04:30;11.60;;;9.20;;
51288;SDS011;37372;52.294;5.152;2023-09-08T01:06:55;13.60;;;9.25;;
51288;SDS011;37372;52.294;5.152;2023-09-08T01:09:22;11.18;;;9.10;;
51288;SDS011;37372;52.294;5.152;2023-09-08T01:11:49;13.90;;;9.60;;
51288;SDS011;37372;52.294;5.152;2023-09-08T01:14:17;13.25;;;9.88;;
51288;SDS011;37372;52.294;5.152;2023-09-08T01:16:44;14.18;;;9.45;;
51288;SDS011;37372;52.294;5.152;2023-09-08T01:19:11;13.52;;;9.32;;
51288;SDS011;37372;52.294;5.152;2023-09-08T01:21:52;12.88;;;9.32;;
51288;SDS011;37372;52.294;5.152;2023-09-08T01:24:57;14.65;;;10.00;;
51288;SDS011;37372;52.294;5.152;2023-09-08T01:27:45;14.35;;;9.52;;
51288;SDS011;37372;52.294;5.152;2023-09-08T01:30:13;14.30;;;10.55;;
51288;SDS011;37372;52.294;5.152;2023-09-08T01:32:40;12.82;;;9.55;;
51288;SDS011;37372;52.294;5.152;2023-09-08T01:35:06;12.10;;;9.73;;
51288;SDS011;37372;52.294;5.152;2023-09-08T01:37:32;15.15;;;9.38;;
51288;SDS011;37372;52.294;5.152;2023-09-08T01:39:57;10.95;;;9.27;;
51288;SDS011;37372;52.294;5.152;2023-09-08T01:42:23;14.30;;;10.75;;
51288;SDS011;37372;52.294;5.152;2023-09-08T01:44:48;15.48;;;10.27;;
51288;SDS011;37372;52.294;5.152;2023-09-08T01:47:14;12.82;;;9.38;;
51288;SDS011;37372;52.294;5.152;2023-09-08T01:49:39;15.63;;;10.25;;
51288;SDS011;37372;52.294;5.152;2023-09-08T01:52:04;15.57;;;11.10;;
51288;SDS011;37372;52.294;5.152;2023-09-08T01:54:30;12.52;;;10.57;;
51288;SDS011;37372;52.294;5.152;2023-09-08T01:56:55;16.08;;;11.65;;
51288;SDS011;37372;52.294;5.152;2023-09-08T01:59:21;13.00;;;10.68;;
51288;SDS011;37372;52.294;5.152;2023-09-08T02:01:46;14.52;;;11.35;;
51288;SDS011;37372;52.294;5.152;2023-09-08T02:04:12;12.38;;;10.25;;
51288;SDS011;37372;52.294;5.152;2023-09-08T02:06:37;14.00;;;11.18;;
51288;SDS011;37372;52.294;5.152;2023-09-08T02:09:02;12.93;;;10.32;;
51288;SDS011;37372;52.294;5.152;2023-09-08T02:11:28;16.02;;;10.70;;
51288;SDS011;37372;52.294;5.152;2023-09-08T02:13:54;13.48;;;9.93;;
51288;SDS011;37372;52.294;5.152;2023-09-08T02:16:19;18.45;;;10.93;;
51288;SDS011;37372;52.294;5.152;2023-09-08T02:18:45;14.65;;;10.50;;
51288;SDS011;37372;52.294;5.152;2023-09-08T02:21:11;16.42;;;10.90;;
51288;SDS011;37372;52.294;5.152;2023-09-08T02:23:36;14.43;;;11.20;;
51288;SDS011;37372;52.294;5.152;2023-09-08T02:26:02;14.35;;;10.75;;
51288;SDS011;37372;52.294;5.152;2023-09-08T02:28:28;15.77;;;10.05;;
51288;SDS011;37372;52.294;5.152;2023-09-08T02:30:54;15.85;;;10.18;;
51288;SDS011;37372;52.294;5.152;2023-09-08T02:33:19;15.82;;;10.88;;
51288;SDS011;37372;52.294;5.152;2023-09-08T02:35:45;14.35;;;10.43;;
51288;SDS011;37372;52.294;5.152;2023-09-08T02:38:10;13.98;;;11.05;;
51288;SDS011;37372;52.294;5.152;2023-09-08T02:40:36;14.15;;;10.43;;
51288;SDS011;37372;52.294;5.152;2023-09-08T02:43:01;14.50;;;11.00;;
51288;SDS011;37372;52.294;5.152;2023-09-08T02:45:27;13.60;;;11.07;;
51288;SDS011;37372;52.294;5.152;2023-09-08T02:47:53;13.95;;;11.32;;
51288;SDS011;37372;52.294;5.152;2023-09-08T02:50:18;13.32;;;10.00;;
51288;SDS011;37372;52.294;5.152;2023-09-08T02:52:43;15.35;;;11.75;;
51288;SDS011;37372;52.294;5.152;2023-09-08T02:55:10;13.65;;;11.18;;
51288;SDS011;37372;52.294;5.152;2023-09-08T02:57:36;16.00;;;11.40;;
51288;SDS011;37372;52.294;5.152;2023-09-08T03:00:02;15.55;;;11.52;;
51288;SDS011;37372;52.294;5.152;2023-09-08T03:02:30;15.25;;;11.43;;
51288;SDS011;37372;52.294;5.152;2023-09-08T03:04:55;13.25;;;10.95;;
51288;SDS011;37372;52.294;5.152;2023-09-08T03:07:20;14.77;;;10.93;;
51288;SDS011;37372;52.294;5.152;2023-09-08T03:09:46;14.75;;;11.05;;
51288;SDS011;37372;52.294;5.152;2023-09-08T03:12:11;14.48;;;11.20;;
51288;SDS011;37372;52.294;5.152;2023-09-08T03:14:37;16.20;;;10.85;;
51288;SDS011;37372;52.294;5.152;2023-09-08T03:17:02;12.73;;;10.30;;
51288;SDS011;37372;52.294;5.152;2023-09-08T03:19:28;13.73;;;11.43;;
51288;SDS011;37372;52.294;5.152;2023-09-08T03:21:53;15.45;;;11.65;;
51288;SDS011;37372;52.294;5.152;2023-09-08T03:24:19;14.75;;;10.98;;
51288;SDS011;37372;52.294;5.152;2023-09-08T03:26:44;15.48;;;10.95;;
51288;SDS011;37372;52.294;5.152;2023-09-08T03:29:09;13.50;;;10.45;;
51288;SDS011;37372;52.294;5.152;2023-09-08T03:31:35;14.38;;;11.65;;
51288;SDS011;37372;52.294;5.152;2023-09-08T03:34:00;17.42;;;12.02;;
51288;SDS011;37372;52.294;5.152;2023-09-08T03:36:25;14.10;;;11.23;;
51288;SDS011;37372;52.294;5.152;2023-09-08T03:38:51;14.10;;;10.35;;
51288;SDS011;37372;52.294;5.152;2023-09-08T03:41:16;15.95;;;10.43;;
51288;SDS011;37372;52.294;5.152;2023-09-08T03:43:42;17.25;;;11.32;;
51288;SDS011;37372;52.294;5.152;2023-09-08T03:46:07;13.95;;;10.75;;
51288;SDS011;37372;52.294;5.152;2023-09-08T03:48:32;13.63;;;11.38;;
51288;SDS011;37372;52.294;5.152;2023-09-08T03:50:58;20.10;;;10.68;;
51288;SDS011;37372;52.294;5.152;2023-09-08T03:53:23;16.88;;;10.93;;
51288;SDS011;37372;52.294;5.152;2023-09-08T03:55:50;14.68;;;10.85;;
51288;SDS011;37372;52.294;5.152;2023-09-08T03:58:15;13.95;;;10.65;;
51288;SDS011;37372;52.294;5.152;2023-09-08T04:00:41;14.98;;;10.50;;
51288;SDS011;37372;52.294;5.152;2023-09-08T04:03:07;14.38;;;10.60;;
51288;SDS011;37372;52.294;5.152;2023-09-08T04:05:32;15.82;;;11.73;;
51288;SDS011;37372;52.294;5.152;2023-09-08T04:07:58;16.77;;;12.25;;
51288;SDS011;37372;52.294;5.152;2023-09-08T04:10:23;18.42;;;11.02;;
51288;SDS011;37372;52.294;5.152;2023-09-08T04:12:49;15.73;;;12.35;;
51288;SDS011;37372;52.294;5.152;2023-09-08T04:15:15;15.02;;;11.52;;
51288;SDS011;37372;52.294;5.152;2023-09-08T04:17:40;14.75;;;10.57;;
51288;SDS011;37372;52.294;5.152;2023-09-08T04:20:06;17.60;;;11.35;;
51288;SDS011;37372;52.294;5.152;2023-09-08T04:22:32;19.35;;;12.63;;
51288;SDS011;37372;52.294;5.152;2023-09-08T04:24:59;18.10;;;13.13;;
51288;SDS011;37372;52.294;5.152;2023-09-08T04:27:24;16.58;;;11.98;;
51288;SDS011;37372;52.294;5.152;2023-09-08T04:29:50;16.88;;;13.23;;
51288;SDS011;37372;52.294;5.152;2023-09-08T04:32:15;18.45;;;12.88;;
51288;SDS011;37372;52.294;5.152;2023-09-08T04:34:41;19.75;;;12.80;;
51288;SDS011;37372;52.294;5.152;2023-09-08T04:37:07;17.08;;;12.27;;
51288;SDS011;37372;52.294;5.152;2023-09-08T04:39:33;17.83;;;12.43;;
51288;SDS011;37372;52.294;5.152;2023-09-08T04:42:00;15.82;;;12.43;;
51288;SDS011;37372;52.294;5.152;2023-09-08T04:44:25;18.20;;;14.18;;
51288;SDS011;37372;52.294;5.152;2023-09-08T04:46:51;16.67;;;13.90;;
51288;SDS011;37372;52.294;5.152;2023-09-08T04:49:17;19.88;;;14.20;;
51288;SDS011;37372;52.294;5.152;2023-09-08T04:51:43;19.38;;;15.77;;
51288;SDS011;37372;52.294;5.152;2023-09-08T04:54:09;18.58;;;13.77;;
51288;SDS011;37372;52.294;5.152;2023-09-08T04:56:34;18.88;;;14.18;;
51288;SDS011;37372;52.294;5.152;2023-09-08T04:59:00;19.83;;;13.98;;
51288;SDS011;37372;52.294;5.152;2023-09-08T05:01:26;19.23;;;14.82;;
51288;SDS011;37372;52.294;5.152;2023-09-08T05:03:58;20.15;;;15.80;;
51288;SDS011;37372;52.294;5.152;2023-09-08T05:06:24;17.48;;;14.18;;
51288;SDS011;37372;52.294;5.152;2023-09-08T05:08:50;16.85;;;14.68;;
51288;SDS011;37372;52.294;5.152;2023-09-08T05:11:15;21.70;;;14.88;;
51288;SDS011;37372;52.294;5.152;2023-09-08T05:13:41;22.15;;;14.93;;
51288;SDS011;37372;52.294;5.152;2023-09-08T05:16:07;18.50;;;14.57;;
51288;SDS011;37372;52.294;5.152;2023-09-08T05:18:38;20.17;;;15.20;;
51288;SDS011;37372;52.294;5.152;2023-09-08T05:21:04;18.50;;;14.80;;
51288;SDS011;37372;52.294;5.152;2023-09-08T05:23:30;20.13;;;15.35;;
51288;SDS011;37372;52.294;5.152;2023-09-08T05:25:56;22.25;;;14.80;;
51288;SDS011;37372;52.294;5.152;2023-09-08T05:28:21;23.33;;;15.35;;
51288;SDS011;37372;52.294;5.152;2023-09-08T05:30:47;20.23;;;15.52;;
51288;SDS011;37372;52.294;5.152;2023-09-08T05:33:12;20.38;;;14.98;;
51288;SDS011;37372;52.294;5.152;2023-09-08T05:35:37;21.75;;;15.27;;
51288;SDS011;37372;52.294;5.152;2023-09-08T05:38:03;19.33;;;14.90;;
51288;SDS011;37372;52.294;5.152;2023-09-08T05:40:28;20.95;;;16.63;;
51288;SDS011;37372;52.294;5.152;2023-09-08T05:42:54;17.65;;;14.75;;
51288;SDS011;37372;52.294;5.152;2023-09-08T05:45:19;18.65;;;15.57;;
51288;SDS011;37372;52.294;5.152;2023-09-08T05:47:45;19.80;;;14.27;;
51288;SDS011;37372;52.294;5.152;2023-09-08T05:50:10;18.58;;;14.30;;
51288;SDS011;37372;52.294;5.152;2023-09-08T05:52:36;19.58;;;14.25;;
51288;SDS011;37372;52.294;5.152;2023-09-08T05:55:01;19.17;;;14.32;;
51288;SDS011;37372;52.294;5.152;2023-09-08T05:57:27;19.45;;;14.57;;
51288;SDS011;37372;52.294;5.152;2023-09-08T05:59:52;17.40;;;14.00;;
51288;SDS011;37372;52.294;5.152;2023-09-08T06:02:18;17.80;;;13.98;;
51288;SDS011;37372;52.294;5.152;2023-09-08T06:04:43;28.27;;;14.02;;
51288;SDS011;37372;52.294;5.152;2023-09-08T06:07:09;17.42;;;12.82;;
51288;SDS011;37372;52.294;5.152;2023-09-08T06:09:34;17.25;;;13.65;;
51288;SDS011;37372;52.294;5.152;2023-09-08T06:12:00;16.60;;;12.95;;
51288;SDS011;37372;52.294;5.152;2023-09-08T06:14:25;23.92;;;13.80;;
51288;SDS011;37372;52.294;5.152;2023-09-08T06:16:51;18.23;;;13.52;;
51288;SDS011;37372;52.294;5.152;2023-09-08T06:19:16;18.60;;;12.27;;
51288;SDS011;37372;52.294;5.152;2023-09-08T06:21:41;18.77;;;13.07;;
51288;SDS011;37372;52.294;5.152;2023-09-08T06:24:07;18.55;;;12.55;;
51288;SDS011;37372;52.294;5.152;2023-09-08T06:26:33;18.38;;;13.23;;
51288;SDS011;37372;52.294;5.152;2023-09-08T06:28:58;16.75;;;13.02;;
51288;SDS011;37372;52.294;5.152;2023-09-08T06:31:23;16.38;;;12.52;;
51288;SDS011;37372;52.294;5.152;2023-09-08T06:33:49;15.50;;;12.45;;
51288;SDS011;37372;52.294;5.152;2023-09-08T06:36:17;17.60;;;11.35;;
51288;SDS011;37372;52.294;5.152;2023-09-08T06:38:43;17.98;;;12.25;;
51288;SDS011;37372;52.294;5.152;2023-09-08T06:41:09;18.63;;;12.23;;
51288;SDS011;37372;52.294;5.152;2023-09-08T06:43:36;18.23;;;12.45;;
51288;SDS011;37372;52.294;5.152;2023-09-08T06:46:01;15.48;;;11.18;;
51288;SDS011;37372;52.294;5.152;2023-09-08T06:48:29;15.43;;;11.82;;
51288;SDS011;37372;52.294;5.152;2023-09-08T06:50:55;18.25;;;12.10;;
51288;SDS011;37372;52.294;5.152;2023-09-08T06:53:24;15.32;;;10.98;;
51288;SDS011;37372;52.294;5.152;2023-09-08T06:55:50;16.10;;;11.45;;
51288;SDS011;37372;52.294;5.152;2023-09-08T06:58:15;13.93;;;11.88;;
51288;SDS011;37372;52.294;5.152;2023-09-08T07:00:41;18.92;;;11.73;;
51288;SDS011;37372;52.294;5.152;2023-09-08T07:03:07;14.25;;;10.55;;
51288;SDS011;37372;52.294;5.152;2023-09-08T07:05:33;13.40;;;10.60;;
51288;SDS011;37372;52.294;5.152;2023-09-08T07:07:59;19.90;;;10.80;;
51288;SDS011;37372;52.294;5.152;2023-09-08T07:10:24;25.98;;;11.02;;
51288;SDS011;37372;52.294;5.152;2023-09-08T07:12:50;13.07;;;9.95;;
51288;SDS011;37372;52.294;5.152;2023-09-08T07:15:15;18.55;;;12.00;;
51288;SDS011;37372;52.294;5.152;2023-09-08T07:17:41;12.13;;;9.63;;
51288;SDS011;37372;52.294;5.152;2023-09-08T07:20:07;14.32;;;11.07;;
51288;SDS011;37372;52.294;5.152;2023-09-08T07:22:33;17.23;;;10.80;;
51288;SDS011;37372;52.294;5.152;2023-09-08T07:24:58;13.02;;;10.05;;
51288;SDS011;37372;52.294;5.152;2023-09-08T07:27:23;14.40;;;10.43;;
51288;SDS011;37372;52.294;5.152;2023-09-08T07:29:49;23.48;;;10.63;;
51288;SDS011;37372;52.294;5.152;2023-09-08T07:32:15;18.02;;;9.75;;
51288;SDS011;37372;52.294;5.152;2023-09-08T07:34:41;13.65;;;10.50;;
51288;SDS011;37372;52.294;5.152;2023-09-08T07:37:06;14.45;;;9.30;;
51288;SDS011;37372;52.294;5.152;2023-09-08T07:39:32;11.18;;;8.93;;
51288;SDS011;37372;52.294;5.152;2023-09-08T07:41:57;16.85;;;9.63;;
51288;SDS011;37372;52.294;5.152;2023-09-08T07:44:23;13.25;;;8.38;;
51288;SDS011;37372;52.294;5.152;2023-09-08T07:46:48;11.70;;;8.77;;
51288;SDS011;37372;52.294;5.152;2023-09-08T07:49:16;12.77;;;8.90;;
51288;SDS011;37372;52.294;5.152;2023-09-08T07:51:44;12.93;;;10.25;;
51288;SDS011;37372;52.294;5.152;2023-09-08T07:54:09;12.25;;;9.45;;
51288;SDS011;37372;52.294;5.152;2023-09-08T07:56:35;11.60;;;8.80;;
51288;SDS011;37372;52.294;5.152;2023-09-08T07:59:00;12.95;;;9.05;;
51288;SDS011;37372;52.294;5.152;2023-09-08T08:01:25;12.77;;;10.27;;
51288;SDS011;37372;52.294;5.152;2023-09-08T08:03:51;13.70;;;8.55;;
51288;SDS011;37372;52.294;5.152;2023-09-08T08:06:16;12.90;;;8.65;;
51288;SDS011;37372;52.294;5.152;2023-09-08T08:08:42;10.63;;;8.48;;
51288;SDS011;37372;52.294;5.152;2023-09-08T08:11:08;10.95;;;8.43;;
51288;SDS011;37372;52.294;5.152;2023-09-08T08:13:40;11.73;;;8.18;;
51288;SDS011;37372;52.294;5.152;2023-09-08T08:16:06;11.63;;;7.95;;
51288;SDS011;37372;52.294;5.152;2023-09-08T08:18:32;14.75;;;7.90;;
51288;SDS011;37372;52.294;5.152;2023-09-08T08:20:58;13.57;;;8.43;;
51288;SDS011;37372;52.294;5.152;2023-09-08T08:23:23;8.98;;;7.53;;
51288;SDS011;37372;52.294;5.152;2023-09-08T08:25:48;10.40;;;7.57;;
51288;SDS011;37372;52.294;5.152;2023-09-08T08:28:14;13.38;;;7.20;;
51288;SDS011;37372;52.294;5.152;2023-09-08T08:30:40;12.35;;;7.75;;
51288;SDS011;37372;52.294;5.152;2023-09-08T08:33:05;13.70;;;8.07;;
51288;SDS011;37372;52.294;5.152;2023-09-08T08:35:31;9.35;;;6.45;;
51288;SDS011;37372;52.294;5.152;2023-09-08T08:38:00;11.55;;;7.53;;
51288;SDS011;37372;52.294;5.152;2023-09-08T08:40:25;11.80;;;6.93;;
51288;SDS011;37372;52.294;5.152;2023-09-08T08:42:55;10.00;;;7.22;;
51288;SDS011;37372;52.294;5.152;2023-09-08T08:45:24;12.68;;;8.27;;
51288;SDS011;37372;52.294;5.152;2023-09-08T08:47:51;11.77;;;7.35;;
51288;SDS011;37372;52.294;5.152;2023-09-08T08:50:17;12.45;;;7.40;;
51288;SDS011;37372;52.294;5.152;2023-09-08T08:52:43;8.82;;;6.60;;
51288;SDS011;37372;52.294;5.152;2023-09-08T08:55:09;9.25;;;7.18;;
51288;SDS011;37372;52.294;5.152;2023-09-08T08:57:38;11.30;;;6.15;;
51288;SDS011;37372;52.294;5.152;2023-09-08T09:00:08;9.13;;;6.82;;
51288;SDS011;37372;52.294;5.152;2023-09-08T09:02:37;9.40;;;6.68;;
51288;SDS011;37372;52.294;5.152;2023-09-08T09:05:05;13.20;;;6.80;;
51288;SDS011;37372;52.294;5.152;2023-09-08T09:07:32;11.95;;;6.70;;
51288;SDS011;37372;52.294;5.152;2023-09-08T09:09:58;13.05;;;6.93;;
51288;SDS011;37372;52.294;5.152;2023-09-08T09:12:23;9.88;;;6.50;;
51288;SDS011;37372;52.294;5.152;2023-09-08T09:14:52;10.27;;;7.03;;
51288;SDS011;37372;52.294;5.152;2023-09-08T09:17:18;9.15;;;6.72;;
51288;SDS011;37372;52.294;5.152;2023-09-08T09:19:46;9.00;;;5.90;;
51288;SDS011;37372;52.294;5.152;2023-09-08T09:22:11;8.50;;;6.32;;
51288;SDS011;37372;52.294;5.152;2023-09-08T09:24:37;9.02;;;6.35;;
51288;SDS011;37372;52.294;5.152;2023-09-08T09:27:08;10.23;;;7.38;;
51288;SDS011;37372;52.294;5.152;2023-09-08T09:29:43;11.23;;;6.22;;
51288;SDS011;37372;52.294;5.152;2023-09-08T09:32:11;8.13;;;6.30;;
51288;SDS011;37372;52.294;5.152;2023-09-08T09:34:36;8.57;;;5.72;;
51288;SDS011;37372;52.294;5.152;2023-09-08T09:37:12;9.35;;;6.40;;
51288;SDS011;37372;52.294;5.152;2023-09-08T09:39:38;13.63;;;6.93;;
51288;SDS011;37372;52.294;5.152;2023-09-08T09:42:03;7.65;;;5.85;;
51288;SDS011;37372;52.294;5.152;2023-09-08T09:44:29;9.20;;;6.03;;
51288;SDS011;37372;52.294;5.152;2023-09-08T09:46:55;15.20;;;6.07;;
51288;SDS011;37372;52.294;5.152;2023-09-08T09:49:21;7.53;;;5.40;;
51288;SDS011;37372;52.294;5.152;2023-09-08T09:51:47;9.70;;;6.05;;
51288;SDS011;37372;52.294;5.152;2023-09-08T09:54:13;9.25;;;5.90;;
51288;SDS011;37372;52.294;5.152;2023-09-08T09:56:39;9.93;;;6.15;;
51288;SDS011;37372;52.294;5.152;2023-09-08T09:59:09;9.32;;;5.85;;
51288;SDS011;37372;52.294;5.152;2023-09-08T10:01:36;9.13;;;6.18;;
51288;SDS011;37372;52.294;5.152;2023-09-08T10:04:02;8.05;;;5.30;;
51288;SDS011;37372;52.294;5.152;2023-09-08T10:06:35;10.13;;;6.70;;
51288;SDS011;37372;52.294;5.152;2023-09-08T10:09:03;11.98;;;6.60;;
51288;SDS011;37372;52.294;5.152;2023-09-08T10:11:42;12.25;;;6.40;;
51288;SDS011;37372;52.294;5.152;2023-09-08T10:14:18;8.93;;;6.77;;
51288;SDS011;37372;52.294;5.152;2023-09-08T10:16:44;10.75;;;7.70;;
51288;SDS011;37372;52.294;5.152;2023-09-08T10:19:14;12.68;;;8.07;;
51288;SDS011;37372;52.294;5.152;2023-09-08T10:21:42;13.00;;;7.70;;
51288;SDS011;37372;52.294;5.152;2023-09-08T10:26:51;9.35;;;6.45;;
51288;SDS011;37372;52.294;5.152;2023-09-08T10:29:25;11.73;;;7.00;;
51288;SDS011;37372;52.294;5.152;2023-09-08T10:31:52;14.10;;;6.85;;
51288;SDS011;37372;52.294;5.152;2023-09-08T10:34:19;8.98;;;5.60;;
51288;SDS011;37372;52.294;5.152;2023-09-08T10:36:46;8.13;;;5.88;;
51288;SDS011;37372;52.294;5.152;2023-09-08T10:39:44;7.97;;;5.97;;
51288;SDS011;37372;52.294;5.152;2023-09-08T10:47:23;16.40;;;6.35;;
51288;SDS011;37372;52.294;5.152;2023-09-08T10:50:07;8.20;;;5.37;;
51288;SDS011;37372;52.294;5.152;2023-09-08T10:52:44;12.88;;;6.32;;
51288;SDS011;37372;52.294;5.152;2023-09-08T10:55:10;8.27;;;5.40;;
51288;SDS011;37372;52.294;5.152;2023-09-08T10:57:37;6.80;;;5.30;;
51288;SDS011;37372;52.294;5.152;2023-09-08T11:00:09;15.18;;;5.57;;
51288;SDS011;37372;52.294;5.152;2023-09-08T11:02:40;7.03;;;5.10;;
51288;SDS011;37372;52.294;5.152;2023-09-08T11:05:12;10.10;;;6.32;;
51288;SDS011;37372;52.294;5.152;2023-09-08T11:07:39;11.25;;;5.53;;
51288;SDS011;37372;52.294;5.152;2023-09-08T11:10:05;7.10;;;5.57;;
51288;SDS011;37372;52.294;5.152;2023-09-08T11:12:33;9.15;;;5.25;;
51288;SDS011;37372;52.294;5.152;2023-09-08T11:14:59;10.40;;;5.13;;
51288;SDS011;37372;52.294;5.152;2023-09-08T11:17:32;11.93;;;5.30;;
51288;SDS011;37372;52.294;5.152;2023-09-08T11:19:59;10.20;;;5.43;;
51288;SDS011;37372;52.294;5.152;2023-09-08T11:22:25;9.52;;;4.70;;
51288;SDS011;37372;52.294;5.152;2023-09-08T11:24:52;8.73;;;5.00;;
51288;SDS011;37372;52.294;5.152;2023-09-08T11:27:18;8.57;;;4.75;;
51288;SDS011;37372;52.294;5.152;2023-09-08T11:29:45;6.85;;;4.78;;
51288;SDS011;37372;52.294;5.152;2023-09-08T11:32:11;6.88;;;4.82;;
51288;SDS011;37372;52.294;5.152;2023-09-08T11:34:37;6.03;;;4.20;;
51288;SDS011;37372;52.294;5.152;2023-09-08T11:37:09;8.77;;;4.88;;
51288;SDS011;37372;52.294;5.152;2023-09-08T11:39:38;7.22;;;5.75;;
51288;SDS011;37372;52.294;5.152;2023-09-08T11:42:06;7.50;;;5.00;;
51288;SDS011;37372;52.294;5.152;2023-09-08T11:44:33;10.10;;;4.78;;
51288;SDS011;37372;52.294;5.152;2023-09-08T11:47:00;8.68;;;5.05;;
51288;SDS011;37372;52.294;5.152;2023-09-08T11:49:27;9.20;;;4.72;;
51288;SDS011;37372;52.294;5.152;2023-09-08T11:52:01;7.90;;;5.18;;
51288;SDS011;37372;52.294;5.152;2023-09-08T11:54:27;5.63;;;4.50;;
51288;SDS011;37372;52.294;5.152;2023-09-08T11:56:53;10.60;;;5.30;;
51288;SDS011;37372;52.294;5.152;2023-09-08T11:59:19;8.25;;;5.20;;
51288;SDS011;37372;52.294;5.152;2023-09-08T12:01:45;6.70;;;4.53;;
51288;SDS011;37372;52.294;5.152;2023-09-08T12:04:17;9.00;;;4.72;;
51288;SDS011;37372;52.294;5.152;2023-09-08T12:06:50;7.95;;;4.82;;
51288;SDS011;37372;52.294;5.152;2023-09-08T12:09:18;7.40;;;5.20;;
51288;SDS011;37372;52.294;5.152;2023-09-08T12:11:45;8.32;;;5.53;;
51288;SDS011;37372;52.294;5.152;2023-09-08T12:14:11;9.00;;;5.45;;
51288;SDS011;37372;52.294;5.152;2023-09-08T12:16:38;10.55;;;5.85;;
51288;SDS011;37372;52.294;5.152;2023-09-08T12:19:04;11.13;;;6.68;;
51288;SDS011;37372;52.294;5.152;2023-09-08T12:21:29;9.63;;;6.25;;
51288;SDS011;37372;52.294;5.152;2023-09-08T12:23:57;8.10;;;6.35;;
51288;SDS011;37372;52.294;5.152;2023-09-08T12:26:24;8.65;;;6.72;;
51288;SDS011;37372;52.294;5.152;2023-09-08T12:28:50;14.50;;;7.47;;
51288;SDS011;37372;52.294;5.152;2023-09-08T12:31:16;12.43;;;6.68;;
51288;SDS011;37372;52.294;5.152;2023-09-08T12:33:43;9.88;;;6.53;;
51288;SDS011;37372;52.294;5.152;2023-09-08T12:36:16;18.90;;;6.63;;
51288;SDS011;37372;52.294;5.152;2023-09-08T12:38:46;9.27;;;5.63;;
51288;SDS011;37372;52.294;5.152;2023-09-08T12:41:16;10.52;;;7.05;;
51288;SDS011;37372;52.294;5.152;2023-09-08T12:43:41;9.27;;;6.82;;
51288;SDS011;37372;52.294;5.152;2023-09-08T12:46:07;10.48;;;6.43;;
51288;SDS011;37372;52.294;5.152;2023-09-08T12:48:32;10.98;;;6.88;;
51288;SDS011;37372;52.294;5.152;2023-09-08T12:50:58;7.95;;;5.65;;
51288;SDS011;37372;52.294;5.152;2023-09-08T12:53:23;10.15;;;5.53;;
51288;SDS011;37372;52.294;5.152;2023-09-08T12:55:49;8.95;;;5.95;;
51288;SDS011;37372;52.294;5.152;2023-09-08T12:58:15;9.48;;;6.32;;
51288;SDS011;37372;52.294;5.152;2023-09-08T13:00:41;10.88;;;5.22;;
51288;SDS011;37372;52.294;5.152;2023-09-08T13:03:07;8.85;;;5.65;;
51288;SDS011;37372;52.294;5.152;2023-09-08T13:05:33;14.02;;;6.93;;
51288;SDS011;37372;52.294;5.152;2023-09-08T13:07:58;8.55;;;5.70;;
51288;SDS011;37372;52.294;5.152;2023-09-08T13:10:23;9.32;;;5.22;;
51288;SDS011;37372;52.294;5.152;2023-09-08T13:12:49;7.43;;;5.57;;
51288;SDS011;37372;52.294;5.152;2023-09-08T13:15:14;8.23;;;6.53;;
51288;SDS011;37372;52.294;5.152;2023-09-08T13:17:40;10.00;;;6.18;;
51288;SDS011;37372;52.294;5.152;2023-09-08T13:20:06;8.00;;;4.93;;
51288;SDS011;37372;52.294;5.152;2023-09-08T13:22:32;8.15;;;5.75;;
51288;SDS011;37372;52.294;5.152;2023-09-08T13:24:58;7.78;;;5.75;;
51288;SDS011;37372;52.294;5.152;2023-09-08T13:27:24;7.88;;;6.18;;
51288;SDS011;37372;52.294;5.152;2023-09-08T13:29:49;9.32;;;6.18;;
51288;SDS011;37372;52.294;5.152;2023-09-08T13:32:14;8.13;;;6.05;;
51288;SDS011;37372;52.294;5.152;2023-09-08T13:34:40;9.50;;;6.07;;
51288;SDS011;37372;52.294;5.152;2023-09-08T13:37:08;8.98;;;6.30;;
51288;SDS011;37372;52.294;5.152;2023-09-08T13:39:34;9.48;;;6.00;;
51288;SDS011;37372;52.294;5.152;2023-09-08T13:42:00;8.57;;;5.25;;
51288;SDS011;37372;52.294;5.152;2023-09-08T13:44:27;9.98;;;6.43;;
51288;SDS011;37372;52.294;5.152;2023-09-08T13:46:52;13.90;;;7.80;;
51288;SDS011;37372;52.294;5.152;2023-09-08T13:49:19;13.70;;;5.60;;
51288;SDS011;37372;52.294;5.152;2023-09-08T13:51:45;9.95;;;5.43;;
51288;SDS011;37372;52.294;5.152;2023-09-08T13:54:11;9.15;;;5.40;;
51288;SDS011;37372;52.294;5.152;2023-09-08T13:56:40;7.10;;;5.18;;
51288;SDS011;37372;52.294;5.152;2023-09-08T13:59:06;7.88;;;5.15;;
51288;SDS011;37372;52.294;5.152;2023-09-08T14:01:33;7.95;;;5.30;;
51288;SDS011;37372;52.294;5.152;2023-09-08T14:03:59;12.20;;;6.45;;
51288;SDS011;37372;52.294;5.152;2023-09-08T14:06:25;8.82;;;5.10;;
51288;SDS011;37372;52.294;5.152;2023-09-08T14:08:51;6.60;;;4.22;;
51288;SDS011;37372;52.294;5.152;2023-09-08T14:11:17;11.73;;;4.60;;
51288;SDS011;37372;52.294;5.152;2023-09-08T14:13:43;9.30;;;4.22;;
51288;SDS011;37372;52.294;5.152;2023-09-08T14:16:09;5.97;;;4.40;;
51288;SDS011;37372;52.294;5.152;2023-09-08T14:18:36;6.13;;;4.15;;
51288;SDS011;37372;52.294;5.152;2023-09-08T14:21:01;6.95;;;4.65;;
51288;SDS011;37372;52.294;5.152;2023-09-08T14:23:27;7.88;;;4.10;;
51288;SDS011;37372;52.294;5.152;2023-09-08T14:25:53;6.45;;;4.28;;
51288;SDS011;37372;52.294;5.152;2023-09-08T14:28:19;7.70;;;4.30;;
51288;SDS011;37372;52.294;5.152;2023-09-08T14:30:44;9.27;;;4.55;;
51288;SDS011;37372;52.294;5.152;2023-09-08T14:33:10;8.18;;;4.35;;
51288;SDS011;37372;52.294;5.152;2023-09-08T14:35:36;7.43;;;4.82;;
51288;SDS011;37372;52.294;5.152;2023-09-08T14:38:06;8.07;;;4.40;;